Time;durP1;ratioP1;P1;durP2;ratioP2;P2;SDS_P1;SDS_P2;PMS_P1;PMS_P2;Temp;Humidity;BMP_temperature;BMP_pressure;BME280_temperature;BME280_humidity;BME280_pressure;Samples;Min_cycle;Max_cycle;Signal;HPM_P1;HPM_P2
2021/12/08 00:00:14;;;;;;;9.10;3.55;;;0.10;99.90;;;;;;4974946;28;20034;-88
2021/12/08 00:02:41;;;;;;;7.57;3.10;;;0.20;99.90;;;;;;4958593;29;20066;-87
2021/12/08 00:05:08;;;;;;;9.30;4.30;;;0.20;99.90;;;;;;4974747;28;20046;-86
2021/12/08 00:07:35;;;;;;;9.18;3.92;;;0.30;99.90;;;;;;4974983;28;20054;-87
2021/12/08 00:13:03;;;;;;;10.32;3.92;;;0.20;99.90;;;;;;4957946;28;20044;-88
2021/12/08 00:15:37;;;;;;;7.68;3.45;;;0.20;99.90;;;;;;4958949;29;20038;-88
2021/12/08 00:18:10;;;;;;;10.23;3.78;;;0.20;99.90;;;;;;4975083;28;20054;-88
2021/12/08 00:20:38;;;;;;;15.45;3.78;;;0.20;99.90;;;;;;4974705;28;20058;-88
2021/12/08 00:23:05;;;;;;;11.45;3.88;;;0.20;99.90;;;;;;4959069;28;20058;-87
2021/12/08 00:25:32;;;;;;;7.32;4.05;;;0.20;99.90;;;;;;4975590;28;20035;-87
2021/12/08 00:27:59;;;;;;;7.20;3.15;;;0.20;99.90;;;;;;4975181;28;20035;-87
2021/12/08 00:30:27;;;;;;;8.75;3.50;;;0.20;99.90;;;;;;4975273;28;20106;-87
2021/12/08 00:32:55;;;;;;;10.55;3.63;;;0.30;99.90;;;;;;4974479;28;20050;-87
2021/12/08 00:35:22;;;;;;;6.60;3.10;;;0.30;99.90;;;;;;4974455;28;20086;-87
2021/12/08 00:37:48;;;;;;;13.05;3.63;;;0.30;99.90;;;;;;4974213;28;20042;-87
2021/12/08 00:40:17;;;;;;;8.32;3.55;;;0.30;99.90;;;;;;4958783;29;20031;-87
2021/12/08 00:42:44;;;;;;;7.70;3.80;;;0.30;99.90;;;;;;4974314;28;20027;-87
2021/12/08 00:45:11;;;;;;;5.38;2.97;;;0.30;99.90;;;;;;4974393;28;20046;-88
2021/12/08 00:47:37;;;;;;;8.05;3.42;;;0.40;99.90;;;;;;4957950;29;20035;-87
2021/12/08 00:50:06;;;;;;;7.90;3.95;;;0.40;99.90;;;;;;4958336;28;20107;-87
2021/12/08 00:52:32;;;;;;;5.10;2.50;;;0.40;99.90;;;;;;4973843;28;20031;-88
2021/12/08 00:54:59;;;;;;;12.00;2.92;;;0.40;99.90;;;;;;4974028;28;20471;-87
2021/12/08 00:57:25;;;;;;;11.02;3.42;;;0.50;99.90;;;;;;4974087;28;20035;-88
2021/12/08 00:59:51;;;;;;;6.63;2.80;;;0.50;99.90;;;;;;4974491;28;20395;-87
2021/12/08 01:02:17;;;;;;;6.68;2.95;;;0.50;99.90;;;;;;4973997;28;20031;-87
2021/12/08 01:08:10;;;;;;;8.07;3.33;;;0.50;99.90;;;;;;4974152;28;20039;-87
2021/12/08 01:10:38;;;;;;;6.90;3.15;;;0.40;99.90;;;;;;4973522;28;20028;-87
2021/12/08 01:13:06;;;;;;;5.50;2.88;;;0.20;99.90;;;;;;4957752;28;20055;-87
2021/12/08 01:15:32;;;;;;;9.13;2.95;;;0.20;99.90;;;;;;4973920;28;20049;-88
2021/12/08 01:17:58;;;;;;;6.55;2.72;;;0.10;99.90;;;;;;4973829;28;20044;-88
2021/12/08 01:20:24;;;;;;;10.35;3.50;;;0.00;99.90;;;;;;4957921;29;20031;-87
2021/12/08 01:22:50;;;;;;;8.52;2.78;;;-0.10;99.90;;;;;;4957950;29;20399;-88
2021/12/08 01:25:38;;;;;;;5.68;2.70;;;-0.10;99.90;;;;;;4972962;28;20027;-88
2021/12/08 01:28:04;;;;;;;11.43;3.17;;;-0.10;99.90;;;;;;4973255;28;20037;-88
2021/12/08 01:30:31;;;;;;;5.18;2.53;;;-0.20;99.90;;;;;;4972787;28;20071;-88
2021/12/08 01:32:56;;;;;;;4.85;2.63;;;-0.30;99.90;;;;;;4973198;28;20090;-88
2021/12/08 01:35:24;;;;;;;15.52;3.80;;;-0.30;99.90;;;;;;4972887;28;20031;-87
2021/12/08 01:37:50;;;;;;;10.32;3.38;;;-0.30;99.90;;;;;;4972935;28;20042;-88
2021/12/08 01:40:17;;;;;;;5.32;3.15;;;-0.40;99.90;;;;;;4972903;28;20396;-89
2021/12/08 01:42:47;;;;;;;11.48;3.35;;;-0.40;99.90;;;;;;4972950;28;20073;-87
2021/12/08 01:48:06;;;;;;;9.80;3.60;;;-0.50;99.90;;;;;;4973515;28;20038;-88
2021/12/08 01:50:33;;;;;;;5.35;3.25;;;-0.50;99.90;;;;;;4972531;28;20043;-88
2021/12/08 01:52:59;;;;;;;8.13;3.05;;;-0.50;99.90;;;;;;4972499;28;20070;-87
2021/12/08 01:55:25;;;;;;;7.25;3.35;;;-0.50;99.90;;;;;;4972857;28;20054;-87
2021/12/08 01:57:51;;;;;;;6.97;3.55;;;-0.50;99.90;;;;;;4973126;28;20055;-88
2021/12/08 02:00:43;;;;;;;8.60;4.03;;;-0.50;99.90;;;;;;4973134;28;20113;-87
2021/12/08 02:03:09;;;;;;;7.18;3.80;;;-0.50;99.90;;;;;;4972395;28;20523;-88
2021/12/08 02:05:35;;;;;;;8.27;3.85;;;-0.60;99.90;;;;;;4972788;28;20364;-88
2021/12/08 02:08:03;;;;;;;10.98;3.75;;;-0.60;99.90;;;;;;4971796;28;20354;-88
2021/12/08 02:10:29;;;;;;;12.13;4.53;;;-0.60;99.90;;;;;;4972634;28;20122;-88
2021/12/08 02:12:55;;;;;;;9.23;4.30;;;-0.60;99.90;;;;;;4972490;28;20070;-88
2021/12/08 02:15:21;;;;;;;11.50;4.63;;;-0.60;99.90;;;;;;4972512;28;20119;-87
2021/12/08 02:17:54;;;;;;;8.48;4.50;;;-0.60;99.90;;;;;;4972532;28;20117;-88
2021/12/08 02:20:23;;;;;;;12.18;5.15;;;-0.60;99.90;;;;;;4972363;28;20027;-88
2021/12/08 02:22:49;;;;;;;9.50;4.25;;;-0.60;99.90;;;;;;4972475;28;20489;-88
2021/12/08 02:25:19;;;;;;;13.68;4.93;;;-0.60;99.90;;;;;;4972686;28;20051;-88
2021/12/08 02:27:45;;;;;;;9.27;4.55;;;-0.60;99.90;;;;;;4972853;28;20038;-87
2021/12/08 02:48:56;;;;;;;10.07;5.18;;;-0.60;99.90;;;;;;4972367;28;20105;-88
2021/12/08 02:51:22;;;;;;;8.57;4.75;;;-0.60;99.90;;;;;;4972386;28;20035;-88
2021/12/08 02:53:48;;;;;;;7.22;4.35;;;-0.60;99.90;;;;;;4956146;29;20093;-88
2021/12/08 02:56:16;;;;;;;9.57;4.65;;;-0.60;99.90;;;;;;4972159;28;20035;-87
2021/12/08 02:58:42;;;;;;;10.85;4.85;;;-0.60;99.90;;;;;;4972171;28;20074;-88
2021/12/08 03:01:08;;;;;;;7.40;4.80;;;-0.60;99.90;;;;;;4972082;28;20495;-87
2021/12/08 03:03:35;;;;;;;9.07;5.75;;;-0.60;99.90;;;;;;4972398;28;20042;-87
2021/12/08 03:06:01;;;;;;;13.30;5.97;;;-0.60;99.90;;;;;;4972366;28;20047;-87
2021/12/08 03:08:27;;;;;;;10.55;5.00;;;-0.60;99.90;;;;;;4972096;28;20487;-87
2021/12/08 03:10:54;;;;;;;10.02;4.53;;;-0.50;99.90;;;;;;4971956;28;20090;-87
2021/12/08 03:13:32;;;;;;;12.77;4.55;;;-0.60;99.90;;;;;;4972015;28;20039;-87
2021/12/08 03:15:58;;;;;;;14.18;6.15;;;-0.60;99.90;;;;;;4971649;28;20047;-87
2021/12/08 03:18:32;;;;;;;11.70;5.07;;;-0.60;99.90;;;;;;4972586;28;20086;-88
2021/12/08 03:20:58;;;;;;;13.55;6.75;;;-0.60;99.90;;;;;;4975595;28;20038;-87
2021/12/08 03:23:31;;;;;;;15.20;6.18;;;-0.50;99.90;;;;;;4975313;28;20126;-87
2021/12/08 03:25:59;;;;;;;13.73;6.40;;;-0.50;99.90;;;;;;4975071;28;20483;-87
2021/12/08 03:28:30;;;;;;;19.55;7.00;;;-0.50;99.90;;;;;;4975027;28;20494;-87
2021/12/08 03:31:08;;;;;;;15.70;6.50;;;-0.50;99.90;;;;;;4975793;28;20035;-87
2021/12/08 03:33:34;;;;;;;17.65;6.95;;;-0.50;99.90;;;;;;4975267;28;20487;-88
2021/12/08 03:36:01;;;;;;;9.63;4.85;;;-0.50;99.90;;;;;;4958825;28;20023;-88
2021/12/08 03:38:27;;;;;;;29.75;11.32;;;-0.40;99.90;;;;;;4974851;28;20027;-89
2021/12/08 03:40:56;;;;;;;10.95;5.00;;;-0.40;99.90;;;;;;4975023;28;20151;-87
2021/12/08 03:43:21;;;;;;;24.20;7.15;;;-0.40;99.90;;;;;;4974909;28;20039;-88
2021/12/08 03:45:50;;;;;;;20.63;7.15;;;-0.40;99.90;;;;;;4958704;28;20042;-87
2021/12/08 03:48:30;;;;;;;13.27;4.95;;;-0.40;99.90;;;;;;4974854;28;20495;-88
2021/12/08 03:50:56;;;;;;;13.52;4.90;;;-0.30;99.90;;;;;;4974852;28;20031;-88
2021/12/08 03:53:22;;;;;;;12.27;5.60;;;-0.30;99.90;;;;;;4974641;28;20046;-88
2021/12/08 03:55:50;;;;;;;12.27;4.95;;;-0.30;99.90;;;;;;4974725;28;20041;-88
2021/12/08 03:58:17;;;;;;;11.50;5.13;;;-0.30;99.90;;;;;;4974419;28;20027;-88
2021/12/08 04:00:45;;;;;;;9.88;4.68;;;-0.20;99.90;;;;;;4974293;28;20031;-88
2021/12/08 04:03:12;;;;;;;10.50;4.97;;;-0.20;99.90;;;;;;4974541;28;20031;-88
2021/12/08 04:05:50;;;;;;;14.40;5.63;;;-0.20;99.90;;;;;;4959543;28;20495;-89
2021/12/08 04:08:27;;;;;;;19.27;7.50;;;-0.20;99.90;;;;;;4959539;29;20031;-88
2021/12/08 04:10:53;;;;;;;13.35;6.18;;;-0.10;99.90;;;;;;4974117;28;20066;-88
2021/12/08 04:17:09;;;;;;;12.57;5.63;;;-0.10;99.90;;;;;;4959276;29;20375;-88
2021/12/08 04:19:37;;;;;;;11.18;5.70;;;-0.10;99.90;;;;;;4973782;28;20043;-87
2021/12/08 04:22:11;;;;;;;13.27;6.28;;;-0.20;99.90;;;;;;4973875;28;20031;-88
2021/12/08 04:24:41;;;;;;;11.10;6.20;;;-0.20;99.90;;;;;;4974283;28;20399;-87
2021/12/08 04:27:12;;;;;;;19.27;5.53;;;-0.10;99.90;;;;;;4974460;28;20095;-88
2021/12/08 04:29:41;;;;;;;10.30;5.30;;;-0.10;99.90;;;;;;4973397;28;20122;-88
2021/12/08 04:32:13;;;;;;;7.95;4.63;;;-0.10;99.90;;;;;;4974033;28;20062;-87
2021/12/08 04:34:40;;;;;;;12.02;6.05;;;-0.10;99.90;;;;;;4973668;28;20130;-87
2021/12/08 04:37:17;;;;;;;14.02;6.53;;;-0.10;99.90;;;;;;4973646;28;20035;-87
2021/12/08 04:39:58;;;;;;;12.30;6.88;;;0.00;99.90;;;;;;4973440;28;20023;-87
2021/12/08 04:42:39;;;;;;;16.13;8.43;;;0.00;99.90;;;;;;4973418;28;20035;-87
2021/12/08 04:45:12;;;;;;;16.48;6.97;;;0.00;99.90;;;;;;4973415;28;20046;-87
2021/12/08 04:47:59;;;;;;;18.52;7.97;;;0.00;99.90;;;;;;4957184;29;20398;-87
2021/12/08 05:08:51;;;;;;;14.82;6.97;;;0.10;99.90;;;;;;4972740;28;20043;-87
2021/12/08 05:11:33;;;;;;;13.45;6.95;;;0.10;99.90;;;;;;4972851;28;20039;-87
2021/12/08 05:14:14;;;;;;;19.17;7.75;;;0.10;99.90;;;;;;4972363;28;20031;-86
2021/12/08 05:16:43;;;;;;;14.07;8.40;;;0.10;99.90;;;;;;4972650;28;20027;-86
2021/12/08 05:19:13;;;;;;;16.67;8.70;;;0.20;99.90;;;;;;4972697;28;20364;-86
2021/12/08 05:21:44;;;;;;;15.70;8.65;;;0.20;99.90;;;;;;4956797;29;20522;-87
2021/12/08 05:24:15;;;;;;;19.17;8.65;;;0.20;99.90;;;;;;4971754;28;20373;-87
2021/12/08 05:26:56;;;;;;;22.73;8.77;;;0.20;99.90;;;;;;4972099;28;20473;-87
2021/12/08 05:29:38;;;;;;;19.77;9.93;;;0.20;99.90;;;;;;4972134;28;20027;-87
2021/12/08 05:32:06;;;;;;;26.52;14.15;;;0.20;99.90;;;;;;4972177;28;20566;-88
2021/12/08 05:34:32;;;;;;;25.35;12.88;;;0.20;99.90;;;;;;4955913;28;20035;-87
2021/12/08 05:36:59;;;;;;;22.92;11.32;;;0.20;99.90;;;;;;4972106;28;20443;-88
2021/12/08 05:39:27;;;;;;;20.60;10.38;;;0.20;99.90;;;;;;4972380;28;20027;-87
2021/12/08 05:42:03;;;;;;;26.45;12.45;;;0.20;99.90;;;;;;4971983;28;20038;-88
2021/12/08 05:44:29;;;;;;;19.92;10.45;;;0.20;99.90;;;;;;4972454;28;20039;-88
2021/12/08 05:46:57;;;;;;;29.23;13.85;;;0.20;99.90;;;;;;4972027;28;20035;-87
2021/12/08 05:49:26;;;;;;;28.30;13.55;;;0.30;99.90;;;;;;4971901;28;20070;-88
2021/12/08 05:51:54;;;;;;;26.83;12.45;;;0.20;99.90;;;;;;4971844;28;20039;-87
2021/12/08 05:54:25;;;;;;;28.83;13.18;;;0.30;99.90;;;;;;4971756;28;20042;-87
2021/12/08 05:56:54;;;;;;;29.63;13.73;;;0.30;99.90;;;;;;4972003;28;20031;-87
2021/12/08 05:59:22;;;;;;;27.80;13.85;;;0.30;99.90;;;;;;4955540;28;20054;-87
2021/12/08 06:01:57;;;;;;;27.10;13.10;;;0.30;99.90;;;;;;4971300;28;20036;-88
2021/12/08 06:04:26;;;;;;;24.73;13.63;;;0.30;99.90;;;;;;4955264;28;20045;-87
2021/12/08 06:06:52;;;;;;;26.70;13.07;;;0.40;99.90;;;;;;4971300;28;20446;-87
2021/12/08 06:09:20;;;;;;;31.30;14.45;;;0.40;99.90;;;;;;4955845;28;20035;-87
2021/12/08 06:11:48;;;;;;;35.88;15.10;;;0.40;99.90;;;;;;4971251;28;20049;-87
2021/12/08 06:14:15;;;;;;;47.22;19.00;;;0.40;99.90;;;;;;4971204;28;20129;-88
2021/12/08 06:16:46;;;;;;;31.55;16.35;;;0.40;99.90;;;;;;4971449;28;20050;-88
2021/12/08 06:19:13;;;;;;;37.85;19.25;;;0.40;99.90;;;;;;4971452;28;20031;-88
2021/12/08 06:21:39;;;;;;;41.08;21.50;;;0.40;99.90;;;;;;4954997;28;20028;-87
2021/12/08 06:24:08;;;;;;;44.55;22.58;;;0.50;99.90;;;;;;4970637;28;20521;-87
2021/12/08 06:26:34;;;;;;;45.80;22.05;;;0.50;99.90;;;;;;4954684;28;20035;-87
2021/12/08 06:29:00;;;;;;;43.35;21.35;;;0.50;99.90;;;;;;4971224;28;20537;-87
2021/12/08 06:31:28;;;;;;;47.10;21.25;;;0.50;99.90;;;;;;4971562;28;20414;-87
2021/12/08 06:33:56;;;;;;;47.63;22.23;;;0.50;99.90;;;;;;4971011;28;20478;-87
2021/12/08 06:36:28;;;;;;;47.00;22.52;;;0.50;99.90;;;;;;4970216;28;20482;-86
2021/12/08 06:38:55;;;;;;;55.95;24.73;;;0.50;99.90;;;;;;4970754;28;20179;-87
2021/12/08 06:41:27;;;;;;;60.78;25.23;;;0.50;99.90;;;;;;4970768;28;20118;-86
2021/12/08 06:44:04;;;;;;;76.68;26.58;;;0.60;99.90;;;;;;4970352;28;20062;-87
2021/12/08 06:46:31;;;;;;;69.43;26.50;;;0.60;99.90;;;;;;4970908;28;20095;-86
2021/12/08 06:48:59;;;;;;;94.03;27.52;;;0.60;99.90;;;;;;4970604;28;20442;-86
2021/12/08 06:51:30;;;;;;;119.28;28.90;;;0.60;99.90;;;;;;4969843;28;20419;-86
2021/12/08 06:54:01;;;;;;;164.15;33.15;;;0.70;99.90;;;;;;4970579;28;20050;-87
2021/12/08 06:56:31;;;;;;;390.23;39.75;;;0.70;99.90;;;;;;4970674;28;20031;-87
2021/12/08 06:59:03;;;;;;;355.58;40.30;;;0.70;99.90;;;;;;4971579;28;20063;-88
2021/12/08 07:01:42;;;;;;;318.88;39.10;;;0.70;99.90;;;;;;4971127;28;20457;-87
2021/12/08 07:04:30;;;;;;;318.38;34.25;;;0.70;99.90;;;;;;4969718;28;20116;-86
2021/12/08 07:07:14;;;;;;;419.67;43.70;;;0.70;99.90;;;;;;4973415;28;20042;-87
2021/12/08 07:09:40;;;;;;;493.60;45.03;;;0.70;99.90;;;;;;4970538;28;20039;-86
2021/12/08 07:12:11;;;;;;;763.65;64.07;;;0.70;99.90;;;;;;4953766;28;20864;-87
2021/12/08 07:14:37;;;;;;;537.30;53.30;;;0.70;99.90;;;;;;4955592;28;20043;-87
2021/12/08 07:17:07;;;;;;;599.92;54.95;;;0.70;99.90;;;;;;4970678;28;20039;-88
2021/12/08 07:19:46;;;;;;;516.10;47.03;;;0.70;99.90;;;;;;4976805;28;20038;-87
2021/12/08 07:22:27;;;;;;;640.78;52.78;;;0.70;99.90;;;;;;4955481;29;20035;-87
2021/12/08 07:24:59;;;;;;;619.05;49.33;;;0.70;99.90;;;;;;4970850;28;20040;-88
2021/12/08 07:27:31;;;;;;;687.92;49.33;;;0.80;99.90;;;;;;4970399;28;20399;-88
2021/12/08 07:30:02;;;;;;;503.48;44.25;;;0.80;99.90;;;;;;4954689;28;20042;-88
2021/12/08 07:32:32;;;;;;;503.45;46.40;;;0.80;99.90;;;;;;4970779;28;20031;-89
2021/12/08 07:35:05;;;;;;;388.83;40.60;;;0.90;99.90;;;;;;4970357;28;20043;-88
2021/12/08 07:37:34;;;;;;;519.60;50.08;;;0.90;99.90;;;;;;4972539;28;20556;-88
2021/12/08 07:40:08;;;;;;;459.15;43.25;;;1.00;99.90;;;;;;4971256;28;20035;-89
2021/12/08 07:42:52;;;;;;;556.90;51.90;;;1.00;99.90;;;;;;4971533;28;20038;-90
2021/12/08 07:45:23;;;;;;;557.50;51.00;;;1.00;99.90;;;;;;4955515;28;20428;-90
2021/12/08 07:47:50;;;;;;;906.40;62.80;;;1.00;99.90;;;;;;4971064;28;20667;-89
2021/12/08 07:50:23;;;;;;;674.88;55.45;;;1.00;99.90;;;;;;4971416;28;20130;-89
2021/12/08 07:52:52;;;;;;;509.30;47.40;;;1.00;99.90;;;;;;4970845;28;20039;-88
2021/12/08 07:55:23;;;;;;;1195.25;82.80;;;1.00;99.90;;;;;;4971024;28;20031;-89
2021/12/08 07:57:49;;;;;;;530.47;59.42;;;1.00;99.90;;;;;;4970838;28;20035;-89
2021/12/08 08:00:29;;;;;;;737.85;72.18;;;1.10;99.90;;;;;;4971105;28;20126;-89
2021/12/08 08:02:56;;;;;;;526.85;49.30;;;1.10;99.90;;;;;;4970782;28;20035;-89
2021/12/08 08:05:28;;;;;;;824.30;61.28;;;1.20;99.90;;;;;;4971389;28;20027;-88
2021/12/08 08:07:56;;;;;;;414.88;41.88;;;1.20;99.90;;;;;;4974231;28;20390;-89
2021/12/08 08:10:23;;;;;;;970.58;66.15;;;1.20;99.90;;;;;;4974017;28;20035;-88
2021/12/08 08:12:57;;;;;;;566.08;49.95;;;1.20;99.90;;;;;;4973858;28;20035;-88
2021/12/08 08:15:25;;;;;;;607.88;54.05;;;1.20;99.90;;;;;;4973607;28;20082;-89
2021/12/08 08:17:54;;;;;;;628.38;52.38;;;1.20;99.90;;;;;;4973753;28;20027;-88
2021/12/08 08:20:36;;;;;;;567.33;52.80;;;1.20;99.90;;;;;;4973565;28;20032;-89
2021/12/08 08:23:02;;;;;;;286.98;41.35;;;1.20;99.90;;;;;;4973977;28;20118;-88
2021/12/08 08:25:39;;;;;;;492.25;46.55;;;1.20;99.90;;;;;;4973530;28;20046;-87
2021/12/08 08:28:06;;;;;;;639.78;56.33;;;1.30;99.90;;;;;;4958745;29;20482;-87
2021/12/08 08:31:03;;;;;;;621.90;55.00;;;1.30;99.90;;;;;;4973934;28;20023;-88
2021/12/08 08:33:31;;;;;;;867.20;65.55;;;1.40;99.90;;;;;;4957458;29;20031;-88
2021/12/08 08:36:04;;;;;;;596.10;52.00;;;1.40;99.90;;;;;;4973108;28;20126;-87
2021/12/08 08:38:54;;;;;;;755.30;62.88;;;1.40;99.90;;;;;;4973382;28;20031;-87
2021/12/08 08:41:32;;;;;;;774.13;65.55;;;1.50;99.90;;;;;;4973438;28;20035;-88
2021/12/08 08:44:01;;;;;;;494.20;48.28;;;1.50;99.90;;;;;;4957900;28;20035;-89
2021/12/08 08:46:33;;;;;;;683.22;55.88;;;1.50;99.90;;;;;;4973685;28;20058;-88
2021/12/08 08:49:10;;;;;;;706.08;61.55;;;1.50;99.90;;;;;;4973883;28;20048;-88
2021/12/08 08:51:59;;;;;;;947.55;77.28;;;1.60;99.90;;;;;;4973744;28;20071;-87
2021/12/08 08:54:30;;;;;;;555.10;53.17;;;1.60;99.90;;;;;;4973290;28;20391;-89
2021/12/08 08:57:01;;;;;;;648.35;57.80;;;1.70;99.90;;;;;;4973466;28;20027;-89
2021/12/08 08:59:42;;;;;;;;;;;1.70;99.90;;;;;;4957506;28;20174;-88
2021/12/08 09:02:12;;;;;;;652.80;62.00;;;1.80;99.90;;;;;;4957535;29;20002;-89
2021/12/08 09:04:44;;;;;;;748.35;72.10;;;1.90;99.90;;;;;;4973375;28;20086;-88
2021/12/08 09:07:14;;;;;;;681.03;63.88;;;1.90;99.90;;;;;;4973627;28;20034;-88
2021/12/08 09:09:46;;;;;;;640.72;68.35;;;1.80;99.90;;;;;;4972753;28;20053;-88
2021/12/08 09:12:30;;;;;;;746.75;69.63;;;1.90;99.90;;;;;;4972658;28;20043;-88
2021/12/08 09:14:58;;;;;;;886.90;71.85;;;1.90;99.90;;;;;;4972592;28;20089;-88
2021/12/08 09:17:42;;;;;;;899.85;75.22;;;1.80;99.90;;;;;;4956401;28;20480;-89
2021/12/08 09:20:11;;;;;;;784.33;63.95;;;1.90;99.90;;;;;;4972695;28;20074;-88
2021/12/08 09:23:02;;;;;;;719.35;61.58;;;1.90;99.90;;;;;;4956332;28;20380;-88
2021/12/08 09:25:29;;;;;;;648.80;56.35;;;1.90;99.90;;;;;;4972434;28;20042;-88
2021/12/08 09:27:58;;;;;;;434.08;50.45;;;1.90;99.90;;;;;;4956088;28;20067;-90
2021/12/08 09:30:39;;;;;;;443.60;46.00;;;2.00;99.90;;;;;;4972416;28;20177;-88
2021/12/08 09:33:24;;;;;;;780.10;65.05;;;2.10;99.90;;;;;;4957301;29;20080;-89
2021/12/08 09:36:03;;;;;;;782.70;63.88;;;2.00;99.90;;;;;;4972060;28;20503;-88
2021/12/08 09:38:39;;;;;;;1011.25;76.50;;;2.00;99.90;;;;;;4972222;28;20038;-88
2021/12/08 09:41:11;;;;;;;874.72;65.75;;;2.00;99.90;;;;;;4971840;28;20031;-88
2021/12/08 09:43:47;;;;;;;562.13;48.42;;;1.90;99.90;;;;;;4955897;28;20031;-88
2021/12/08 09:46:21;;;;;;;454.38;46.83;;;1.90;99.90;;;;;;4971737;28;20038;-88
2021/12/08 09:48:47;;;;;;;458.88;47.25;;;1.90;99.90;;;;;;4972191;28;20039;-89
2021/12/08 09:51:17;;;;;;;457.88;47.22;;;1.90;99.90;;;;;;4971746;28;20031;-85
2021/12/08 09:53:43;;;;;;;114.18;33.20;;;1.90;99.90;;;;;;4970892;28;20046;-85
2021/12/08 09:56:10;;;;;;;486.65;53.38;;;2.00;99.90;;;;;;4971318;28;20031;-86
2021/12/08 09:58:37;;;;;;;539.28;56.72;;;2.00;99.90;;;;;;4971324;28;20392;-88
2021/12/08 10:01:31;;;;;;;583.90;54.45;;;1.90;99.90;;;;;;4971124;28;20035;-86
2021/12/08 10:03:57;;;;;;;624.55;56.72;;;1.90;99.90;;;;;;4970722;28;20035;-86
2021/12/08 10:06:24;;;;;;;458.33;49.63;;;2.00;99.90;;;;;;4970672;28;20182;-86
2021/12/08 10:08:51;;;;;;;194.45;35.35;;;2.00;99.90;;;;;;4970721;28;20043;-85
2021/12/08 10:11:18;;;;;;;79.70;32.15;;;2.00;99.90;;;;;;4970849;28;20082;-86
2021/12/08 10:13:45;;;;;;;160.65;36.25;;;2.10;99.90;;;;;;4970302;28;20041;-85
2021/12/08 10:16:13;;;;;;;82.53;33.33;;;2.20;99.90;;;;;;4970708;28;20057;-84
2021/12/08 10:18:39;;;;;;;81.53;33.35;;;2.20;99.90;;;;;;4970667;28;20659;-90
2021/12/08 10:21:05;;;;;;;84.25;31.95;;;2.20;99.90;;;;;;4971489;28;20042;-89
2021/12/08 10:23:39;;;;;;;135.00;34.90;;;2.30;99.90;;;;;;4971594;28;20030;-89
2021/12/08 10:26:16;;;;;;;151.35;35.30;;;2.40;99.90;;;;;;4955827;28;20043;-89
2021/12/08 10:28:49;;;;;;;122.57;33.40;;;2.40;99.90;;;;;;4954925;28;20027;-88
2021/12/08 10:31:26;;;;;;;372.10;45.22;;;2.40;99.90;;;;;;4971507;28;20035;-89
2021/12/08 10:34:24;;;;;;;486.55;47.95;;;2.50;99.90;;;;;;4971771;28;20032;-88
2021/12/08 10:37:01;;;;;;;504.58;47.90;;;2.60;99.90;;;;;;4971618;28;20483;-89
2021/12/08 10:39:45;;;;;;;289.25;37.58;;;2.50;99.90;;;;;;4971625;28;20491;-89
2021/12/08 10:42:19;;;;;;;219.88;39.17;;;2.50;99.90;;;;;;4971590;28;20027;-89
2021/12/08 10:44:56;;;;;;;337.02;45.17;;;2.50;99.90;;;;;;4971198;28;20454;-88
2021/12/08 10:47:22;;;;;;;200.32;38.55;;;2.50;99.90;;;;;;4955509;28;20039;-88
2021/12/08 10:55:05;;;;;;;399.05;36.63;;;2.50;99.90;;;;;;4971195;28;20039;-89
2021/12/08 10:57:37;;;;;;;109.38;26.33;;;2.40;99.90;;;;;;4971156;28;20484;-88
2021/12/08 11:00:09;;;;;;;168.80;29.45;;;2.50;99.90;;;;;;4974988;28;20574;-89
2021/12/08 11:02:36;;;;;;;254.63;31.95;;;2.60;99.90;;;;;;4971301;28;20483;-87
2021/12/08 11:05:03;;;;;;;127.10;26.42;;;2.70;99.90;;;;;;4971694;28;20395;-88
2021/12/08 11:07:29;;;;;;;63.47;24.17;;;2.70;99.90;;;;;;4971869;28;20081;-88
2021/12/08 11:09:55;;;;;;;42.55;23.08;;;2.70;99.90;;;;;;4971938;28;20039;-88
2021/12/08 11:12:21;;;;;;;40.97;21.30;;;2.70;99.90;;;;;;4971045;28;20110;-88
2021/12/08 11:14:50;;;;;;;42.75;20.50;;;2.70;99.90;;;;;;4971038;28;20144;-88
2021/12/08 11:17:26;;;;;;;45.08;24.80;;;2.70;99.90;;;;;;4970744;28;20103;-88
2021/12/08 11:20:14;;;;;;;48.33;23.30;;;2.70;99.90;;;;;;4970502;28;20054;-87
2021/12/08 11:22:41;;;;;;;53.05;22.80;;;2.60;99.90;;;;;;4955139;28;20031;-88
2021/12/08 11:25:07;;;;;;;56.45;26.85;;;2.60;99.90;;;;;;4970817;28;20039;-87
2021/12/08 11:27:34;;;;;;;52.42;27.13;;;2.70;99.90;;;;;;4969620;28;20031;-87
2021/12/08 11:30:12;;;;;;;37.67;21.90;;;2.50;99.90;;;;;;4970131;28;20542;-88
2021/12/08 11:32:37;;;;;;;44.45;21.88;;;2.30;99.90;;;;;;4970104;28;20042;-87
2021/12/08 11:35:04;;;;;;;58.65;24.52;;;2.10;99.90;;;;;;4970051;28;20475;-88
2021/12/08 11:37:34;;;;;;;55.60;27.27;;;2.10;99.90;;;;;;4970168;28;20102;-88
2021/12/08 11:40:02;;;;;;;58.08;28.50;;;2.10;99.90;;;;;;4972847;28;20035;-87
2021/12/08 11:42:33;;;;;;;60.05;28.88;;;2.10;99.90;;;;;;4944843;28;20035;-88
2021/12/08 11:45:01;;;;;;;60.10;28.98;;;2.10;99.90;;;;;;4973811;28;20031;-88
2021/12/08 11:47:46;;;;;;;54.95;25.83;;;2.10;99.90;;;;;;4973839;28;20086;-88
2021/12/08 11:50:17;;;;;;;43.20;23.45;;;2.20;99.90;;;;;;4973954;28;20101;-87
2021/12/08 11:52:43;;;;;;;47.45;25.60;;;2.20;99.90;;;;;;4974271;28;20127;-89
2021/12/08 11:55:17;;;;;;;47.00;23.17;;;2.30;99.90;;;;;;4974236;28;20110;-89
2021/12/08 11:58:02;;;;;;;48.03;24.63;;;2.40;99.90;;;;;;4975107;28;20491;-89
2021/12/08 12:00:37;;;;;;;49.00;25.20;;;2.40;99.90;;;;;;4974843;28;20066;-88
2021/12/08 12:03:10;;;;;;;61.00;29.83;;;2.40;99.90;;;;;;4974698;28;20027;-89
2021/12/08 12:05:39;;;;;;;50.75;26.17;;;2.30;99.90;;;;;;4975198;28;20034;-89
2021/12/08 12:08:10;;;;;;;65.85;32.42;;;2.40;99.90;;;;;;4959478;28;20050;-89
2021/12/08 12:10:40;;;;;;;43.80;24.65;;;2.40;99.90;;;;;;4975041;28;20074;-89
2021/12/08 12:13:08;;;;;;;49.95;25.63;;;2.40;99.90;;;;;;4975083;28;20031;-88
2021/12/08 12:15:36;;;;;;;55.40;26.27;;;2.50;99.90;;;;;;4974723;28;20498;-89
2021/12/08 12:18:04;;;;;;;44.80;26.13;;;2.60;99.90;;;;;;4974212;28;20062;-88
2021/12/08 12:20:39;;;;;;;55.58;28.42;;;2.60;99.90;;;;;;4974860;28;20027;-88
2021/12/08 12:23:33;;;;;;;91.18;33.35;;;2.60;99.90;;;;;;4974234;28;20036;-89
2021/12/08 12:26:15;;;;;;;53.75;26.70;;;2.60;99.90;;;;;;4942246;29;20050;-89
2021/12/08 12:29:14;;;;;;;53.88;26.83;;;2.60;99.90;;;;;;4974727;28;20390;-88
2021/12/08 12:31:54;;;;;;;38.28;21.58;;;2.50;99.90;;;;;;4974792;28;20042;-88
2021/12/08 12:34:32;;;;;;;44.28;23.05;;;2.60;99.90;;;;;;4973975;28;20046;-88
2021/12/08 12:37:03;;;;;;;60.40;26.92;;;2.60;99.90;;;;;;4974549;28;20038;-88
2021/12/08 12:39:30;;;;;;;52.47;28.13;;;2.70;99.90;;;;;;4974321;28;20023;-88
2021/12/08 12:42:01;;;;;;;47.60;27.45;;;2.80;99.90;;;;;;4974371;28;20038;-88
2021/12/08 12:44:31;;;;;;;44.53;23.92;;;2.80;99.90;;;;;;4958137;28;20031;-88
2021/12/08 12:47:11;;;;;;;47.92;22.95;;;2.90;99.90;;;;;;4973988;28;20039;-87
2021/12/08 12:49:46;;;;;;;36.10;20.40;;;2.90;99.90;;;;;;4957621;28;20419;-88
2021/12/08 12:52:15;;;;;;;43.80;22.85;;;3.00;99.90;;;;;;4973019;28;20039;-88
2021/12/08 12:54:43;;;;;;;42.80;24.88;;;3.00;99.90;;;;;;4973239;28;20027;-88
2021/12/08 12:57:09;;;;;;;48.22;24.17;;;3.10;99.90;;;;;;4973486;28;20514;-88
2021/12/08 12:59:44;;;;;;;41.55;22.92;;;3.00;99.90;;;;;;4958793;29;20042;-88
2021/12/08 13:02:22;;;;;;;48.20;23.38;;;3.00;99.90;;;;;;4973312;28;20119;-88
2021/12/08 13:04:56;;;;;;;43.47;24.02;;;3.00;99.90;;;;;;4973372;28;20090;-87
2021/12/08 13:07:28;;;;;;;46.33;23.42;;;3.00;99.90;;;;;;4973182;28;20394;-88
2021/12/08 13:10:14;;;;;;;37.90;21.17;;;3.00;99.90;;;;;;4973877;28;20031;-88
2021/12/08 13:12:42;;;;;;;44.42;23.65;;;3.00;99.90;;;;;;4973232;28;20039;-87
2021/12/08 13:15:24;;;;;;;45.72;25.52;;;2.90;99.90;;;;;;4972392;28;20086;-88
2021/12/08 13:18:07;;;;;;;42.67;23.95;;;2.90;99.90;;;;;;4972660;28;20472;-88
2021/12/08 13:20:34;;;;;;;52.22;28.30;;;2.90;99.90;;;;;;4973234;28;20027;-88
2021/12/08 13:23:07;;;;;;;59.47;29.40;;;2.80;99.90;;;;;;4973407;28;20039;-88
2021/12/08 13:28:46;;;;;;;47.70;19.35;;;2.80;99.90;;;;;;4974961;28;20051;-88
2021/12/08 13:31:37;;;;;;;46.20;19.45;;;2.80;99.90;;;;;;4957529;29;20054;-88
2021/12/08 13:34:08;;;;;;;37.17;18.73;;;2.70;99.90;;;;;;4972452;28;20042;-87
2021/12/08 13:36:37;;;;;;;38.97;19.60;;;2.70;99.90;;;;;;4972736;28;20427;-88
2021/12/08 13:39:09;;;;;;;41.45;18.23;;;2.70;99.90;;;;;;4956436;28;20031;-88
2021/12/08 13:41:37;;;;;;;36.50;20.27;;;2.70;99.90;;;;;;4956494;29;20034;-89
2021/12/08 13:44:35;;;;;;;40.75;21.92;;;2.70;99.90;;;;;;4972043;28;20086;-89
2021/12/08 13:47:08;;;;;;;47.20;24.63;;;2.70;99.90;;;;;;4971758;28;20620;-88
2021/12/08 13:49:51;;;;;;;55.85;28.50;;;2.70;99.90;;;;;;4971837;28;20130;-89
2021/12/08 13:52:20;;;;;;;76.07;35.22;;;2.60;99.90;;;;;;4972897;28;20053;-89
2021/12/08 13:54:48;;;;;;;75.18;30.45;;;2.60;99.90;;;;;;4972553;28;20039;-89
2021/12/08 13:57:37;;;;;;;107.95;43.65;;;2.50;99.90;;;;;;4973309;28;20038;-87